createdAt,value
2018-11-07T00:01:59.263Z,13.67
2018-11-07T00:04:27.819Z,14.13
2018-11-07T00:06:56.500Z,14.30
2018-11-07T00:09:24.935Z,14.23
2018-11-07T00:11:53.513Z,12.77
2018-11-07T00:14:22.066Z,13.77
2018-11-07T00:16:50.721Z,13.47
2018-11-07T00:19:19.330Z,14.13
2018-11-07T00:21:47.829Z,14.17
2018-11-07T00:24:16.542Z,13.80
2018-11-07T00:26:45.129Z,14.07
2018-11-07T00:29:14.720Z,14.10
2018-11-07T00:31:43.216Z,14.53
2018-11-07T00:34:13.346Z,14.00
2018-11-07T00:36:41.893Z,14.33
2018-11-07T00:39:11.219Z,13.97
2018-11-07T00:41:39.715Z,15.07
2018-11-07T00:44:08.737Z,16.23
2018-11-07T00:46:37.279Z,15.43
2018-11-07T00:49:07.536Z,13.63
2018-11-07T00:51:36.119Z,14.53
2018-11-07T00:54:04.730Z,13.50
2018-11-07T00:56:33.279Z,14.13
2018-11-07T00:59:01.810Z,12.80
2018-11-07T01:01:30.258Z,13.03
2018-11-07T01:03:58.826Z,12.63
2018-11-07T01:06:27.309Z,13.40
2018-11-07T01:08:55.992Z,12.47
2018-11-07T01:11:24.813Z,12.90
2018-11-07T01:13:53.390Z,14.03
2018-11-07T01:16:22.484Z,13.10
2018-11-07T01:18:51.001Z,12.63
2018-11-07T01:21:19.574Z,13.03
2018-11-07T01:23:48.061Z,12.97
2018-11-07T01:26:16.646Z,12.57
2018-11-07T01:28:45.388Z,12.77
2018-11-07T01:31:13.998Z,13.20
2018-11-07T01:33:42.722Z,12.50
2018-11-07T01:36:11.259Z,12.63
2018-11-07T01:38:40.090Z,12.23
2018-11-07T01:41:08.627Z,13.20
2018-11-07T01:43:37.026Z,12.40
2018-11-07T01:46:05.723Z,11.83
2018-11-07T01:48:34.214Z,12.50
2018-11-07T01:51:02.740Z,13.10
2018-11-07T01:53:31.289Z,13.53
2018-11-07T01:55:59.837Z,15.57
2018-11-07T01:58:28.384Z,12.53
2018-11-07T02:00:56.991Z,12.13
2018-11-07T02:03:25.450Z,12.53
2018-11-07T02:05:54.041Z,12.03
2018-11-07T02:08:51.189Z,12.70
2018-11-07T02:11:23.057Z,12.53
2018-11-07T02:13:51.662Z,11.60
2018-11-07T02:16:20.205Z,11.87
2018-11-07T02:18:48.784Z,12.17
2018-11-07T02:21:17.640Z,11.80
2018-11-07T02:23:46.229Z,11.90
2018-11-07T02:26:14.883Z,12.40
2018-11-07T02:28:44.419Z,12.10
2018-11-07T02:31:12.991Z,11.63
2018-11-07T02:33:41.441Z,11.60
2018-11-07T02:36:09.896Z,11.97
2018-11-07T02:38:38.606Z,11.97
2018-11-07T02:41:07.459Z,11.95
2018-11-07T02:43:35.913Z,11.73
2018-11-07T02:46:04.524Z,11.53
2018-11-07T02:48:33.179Z,12.10
2018-11-07T02:51:01.742Z,11.17
2018-11-07T02:53:30.247Z,11.50
2018-11-07T02:55:58.810Z,12.03
2018-11-07T02:58:27.600Z,12.00
2018-11-07T03:00:56.199Z,12.17
2018-11-07T03:03:24.857Z,12.23
2018-11-07T03:05:55.053Z,12.37
2018-11-07T03:08:23.759Z,11.77
2018-11-07T03:10:52.359Z,11.50
2018-11-07T03:13:20.846Z,12.73
2018-11-07T03:15:49.433Z,11.77
2018-11-07T03:18:18.093Z,12.73
2018-11-07T03:20:46.816Z,12.13
2018-11-07T03:23:15.261Z,11.80
2018-11-07T03:25:43.817Z,11.60
2018-11-07T03:28:12.384Z,11.63
2018-11-07T03:30:41.989Z,12.40
2018-11-07T03:33:10.538Z,12.90
2018-11-07T03:35:39.147Z,12.87
2018-11-07T03:38:08.747Z,12.17
2018-11-07T03:40:37.329Z,12.20
2018-11-07T03:43:06.287Z,12.63
2018-11-07T03:45:40.101Z,12.63
2018-11-07T03:48:08.626Z,12.87
2018-11-07T03:50:37.227Z,12.40
2018-11-07T03:53:06.283Z,12.60
2018-11-07T03:55:34.878Z,12.73
2018-11-07T03:58:03.399Z,13.30
2018-11-07T04:00:31.928Z,13.37
2018-11-07T04:03:00.471Z,13.43
2018-11-07T04:05:29.247Z,12.63
2018-11-07T04:07:57.802Z,14.07
2018-11-07T04:10:26.425Z,13.93
2018-11-07T04:12:54.977Z,14.23
2018-11-07T04:15:23.557Z,13.63
2018-11-07T04:17:52.076Z,13.93
2018-11-07T04:20:21.886Z,13.27
2018-11-07T04:22:50.414Z,13.80
2018-11-07T04:25:18.970Z,13.63
2018-11-07T04:27:47.620Z,13.50
2018-11-07T04:30:16.165Z,13.93
2018-11-07T04:32:44.785Z,14.23
2018-11-07T04:35:14.327Z,13.07
2018-11-07T04:37:43.163Z,14.33
2018-11-07T04:47:00.334Z,14.23
2018-11-07T04:49:28.950Z,13.87
2018-11-07T04:51:57.633Z,14.10
2018-11-07T04:54:26.182Z,14.43
2018-11-07T04:56:55.077Z,15.43
2018-11-07T04:59:23.542Z,14.83
2018-11-07T05:01:52.127Z,15.03
2018-11-07T05:04:20.621Z,15.97
2018-11-07T05:06:49.206Z,14.57
2018-11-07T05:09:17.639Z,14.87
2018-11-07T05:11:46.372Z,15.15
2018-11-07T05:14:14.846Z,15.23
2018-11-07T05:16:43.514Z,15.43
2018-11-07T05:19:13.052Z,14.17
2018-11-07T05:21:41.620Z,14.73
2018-11-07T05:24:10.109Z,15.23
2018-11-07T05:26:38.648Z,15.20
2018-11-07T05:29:07.203Z,14.47
2018-11-07T05:31:35.747Z,14.67
2018-11-07T05:34:04.394Z,14.73
2018-11-07T05:36:32.987Z,15.83
2018-11-07T05:39:01.444Z,14.17
2018-11-07T05:41:30.086Z,14.73
2018-11-07T05:43:58.593Z,14.27
2018-11-07T05:46:27.168Z,14.30
2018-11-07T05:48:56.704Z,14.00
2018-11-07T05:51:26.301Z,15.30
2018-11-07T05:53:55.190Z,15.40
2018-11-07T05:56:24.079Z,14.67
2018-11-07T05:58:53.167Z,14.37
2018-11-07T06:01:21.797Z,14.93
2018-11-07T06:03:50.458Z,14.83
2018-11-07T06:06:19.105Z,14.60
2018-11-07T06:08:47.574Z,15.77
2018-11-07T06:11:17.250Z,14.95
2018-11-07T06:13:45.804Z,14.77
2018-11-07T06:16:14.361Z,15.10
2018-11-07T06:18:43.069Z,14.93
2018-11-07T06:21:12.155Z,15.00
2018-11-07T06:23:40.697Z,15.37
2018-11-07T06:26:09.719Z,15.53
2018-11-07T06:28:38.220Z,16.20
2018-11-07T06:31:06.916Z,15.83
2018-11-07T06:33:35.382Z,15.80
2018-11-07T06:36:04.135Z,16.70
2018-11-07T06:38:32.606Z,17.00
2018-11-07T06:41:01.241Z,15.88
2018-11-07T06:43:29.781Z,16.70
2018-11-07T06:45:58.406Z,17.30
2018-11-07T06:48:28.067Z,17.10
2018-11-07T06:50:58.292Z,16.77
2018-11-07T06:53:26.925Z,20.30
2018-11-07T06:55:55.508Z,18.63
2018-11-07T06:58:24.094Z,18.13
2018-11-07T07:00:52.767Z,15.80
2018-11-07T07:03:21.320Z,15.53
2018-11-07T07:05:49.883Z,14.27
2018-11-07T07:08:18.541Z,14.50
2018-11-07T07:10:46.959Z,13.00
2018-11-07T07:13:15.817Z,13.27
2018-11-07T07:15:44.426Z,13.27
2018-11-07T07:18:13.162Z,13.37
2018-11-07T07:20:41.687Z,12.63
2018-11-07T07:23:10.206Z,12.67
2018-11-07T07:25:39.972Z,13.17
2018-11-07T07:28:08.517Z,11.70
2018-11-07T07:30:37.117Z,12.57
2018-11-07T07:33:05.725Z,12.70
2018-11-07T07:35:34.263Z,11.93
2018-11-07T07:38:02.927Z,12.57
2018-11-07T07:40:31.519Z,12.40
2018-11-07T07:42:59.993Z,11.83
2018-11-07T07:45:28.492Z,13.17
2018-11-07T07:47:57.104Z,12.93
2018-11-07T07:50:25.665Z,12.27
2018-11-07T07:52:54.208Z,12.70
2018-11-07T07:55:22.838Z,12.40
2018-11-07T07:57:51.377Z,12.17
2018-11-07T08:00:20.933Z,12.03
2018-11-07T08:02:50.716Z,12.70
2018-11-07T08:05:19.285Z,12.30
2018-11-07T08:07:48.298Z,12.43
2018-11-07T08:10:18.805Z,12.17
2018-11-07T08:12:47.868Z,12.07
2018-11-07T08:15:17.148Z,12.00
2018-11-07T08:17:46.397Z,12.23
2018-11-07T08:20:16.055Z,12.10
2018-11-07T08:22:45.431Z,12.07
2018-11-07T08:25:14.000Z,12.37
2018-11-07T08:27:42.776Z,11.50
2018-11-07T08:30:13.667Z,12.03
2018-11-07T08:32:42.277Z,12.43
2018-11-07T08:35:12.222Z,12.30
2018-11-07T08:37:41.581Z,12.27
2018-11-07T08:40:12.578Z,12.30
2018-11-07T08:42:41.368Z,11.77
2018-11-07T08:45:11.347Z,12.17
2018-11-07T08:47:40.047Z,12.40
2018-11-07T08:50:10.996Z,12.27
2018-11-07T08:52:41.112Z,12.47
2018-11-07T08:55:12.114Z,11.70
2018-11-07T08:57:40.648Z,11.33
2018-11-07T09:00:11.709Z,12.13
2018-11-07T09:02:40.708Z,11.63
2018-11-07T09:05:09.686Z,12.17
2018-11-07T09:07:38.175Z,12.20
2018-11-07T09:10:09.379Z,12.50
2018-11-07T09:12:38.141Z,12.17
2018-11-07T09:15:08.898Z,12.63
2018-11-07T09:17:37.615Z,10.53
2018-11-07T09:20:07.481Z,12.07
2018-11-07T09:22:35.978Z,11.73
2018-11-07T09:25:04.727Z,11.50
2018-11-07T09:27:33.314Z,11.43
2018-11-07T09:30:01.937Z,11.47
2018-11-07T09:32:30.577Z,11.67
2018-11-07T09:35:00.354Z,12.40
2018-11-07T09:37:28.885Z,13.30
2018-11-07T09:39:57.477Z,13.30
2018-11-07T09:42:25.999Z,12.77
2018-11-07T09:44:54.487Z,13.03
2018-11-07T09:47:23.049Z,12.50
2018-11-07T09:49:51.806Z,12.77
2018-11-07T09:52:21.325Z,12.13
2018-11-07T09:54:49.898Z,11.73
2018-11-07T09:57:18.446Z,11.63
2018-11-07T09:59:46.942Z,12.37
2018-11-07T10:02:15.436Z,11.87
2018-11-07T10:04:44.300Z,11.40
2018-11-07T10:07:12.830Z,11.93
2018-11-07T10:09:41.310Z,12.20
2018-11-07T10:12:09.814Z,11.90
2018-11-07T10:14:38.398Z,11.80
2018-11-07T10:17:06.823Z,13.17
2018-11-07T10:19:35.359Z,11.47
2018-11-07T10:22:03.925Z,13.43
2018-11-07T10:24:32.431Z,11.63
2018-11-07T10:27:01.200Z,11.87
2018-11-07T10:29:30.011Z,12.07
2018-11-07T10:31:58.572Z,11.60
2018-11-07T10:34:27.124Z,11.93
2018-11-07T10:36:55.814Z,11.63
2018-11-07T10:39:24.268Z,12.07
2018-11-07T10:41:53.070Z,13.93
2018-11-07T10:44:21.665Z,17.97
2018-11-07T10:46:50.567Z,14.27
2018-11-07T10:49:19.062Z,12.43
2018-11-07T10:51:47.751Z,11.83
2018-11-07T10:54:17.096Z,12.53
2018-11-07T10:56:45.615Z,12.80
2018-11-07T10:59:14.157Z,12.23
2018-11-07T11:01:48.047Z,13.00
2018-11-07T11:04:17.169Z,12.87
2018-11-07T11:06:45.793Z,13.37
2018-11-07T11:09:14.493Z,12.93
2018-11-07T11:11:43.465Z,13.20
2018-11-07T11:14:12.239Z,16.43
2018-11-07T11:16:41.689Z,12.43
2018-11-07T11:19:10.138Z,12.50
2018-11-07T11:21:38.683Z,12.47
2018-11-07T11:24:07.373Z,13.17
2018-11-07T11:26:35.788Z,12.70
2018-11-07T11:29:04.382Z,13.00
2018-11-07T11:31:33.053Z,12.60
2018-11-07T11:34:01.796Z,12.73
2018-11-07T11:36:30.547Z,12.77
2018-11-07T11:38:59.095Z,12.63
2018-11-07T11:41:27.830Z,12.87
2018-11-07T11:43:56.590Z,12.43
2018-11-07T11:46:25.290Z,12.53
2018-11-07T11:48:53.802Z,13.27
2018-11-07T11:51:22.563Z,13.03
2018-11-07T11:53:51.220Z,12.70
2018-11-07T11:56:19.909Z,12.77
2018-11-07T11:58:50.652Z,13.20
2018-11-07T12:01:19.255Z,12.80
2018-11-07T12:03:47.959Z,12.80
2018-11-07T12:06:16.681Z,12.70
2018-11-07T12:08:45.257Z,13.30
2018-11-07T12:11:13.840Z,12.27
2018-11-07T12:13:42.378Z,12.97
2018-11-07T12:16:11.128Z,13.40
2018-11-07T12:18:40.509Z,13.30
2018-11-07T12:21:09.008Z,12.93
2018-11-07T12:23:38.556Z,12.67
2018-11-07T12:26:07.180Z,12.30
2018-11-07T12:28:35.675Z,12.60
2018-11-07T12:31:04.421Z,12.23
2018-11-07T12:33:33.067Z,13.30
2018-11-07T12:36:01.705Z,12.60
2018-11-07T12:38:31.001Z,13.13
2018-11-07T12:40:59.688Z,13.67
2018-11-07T12:43:28.288Z,12.80
2018-11-07T12:45:57.027Z,13.07
2018-11-07T12:48:25.850Z,12.70
2018-11-07T12:50:54.649Z,13.00
2018-11-07T12:53:23.415Z,12.97
2018-11-07T12:55:52.762Z,12.87
2018-11-07T12:58:21.411Z,12.98
2018-11-07T13:00:49.841Z,13.20
2018-11-07T13:03:18.684Z,13.33
2018-11-07T13:05:47.435Z,13.30
2018-11-07T13:08:16.150Z,12.73
2018-11-07T13:10:44.775Z,13.87
2018-11-07T13:13:13.390Z,13.83
2018-11-07T13:15:42.035Z,13.67
2018-11-07T13:18:10.488Z,13.43
2018-11-07T13:20:39.163Z,13.67
2018-11-07T13:23:07.740Z,14.13
2018-11-07T13:25:36.246Z,13.37
2018-11-07T13:28:04.969Z,13.23
2018-11-07T13:30:33.506Z,14.03
2018-11-07T13:33:02.303Z,13.67
2018-11-07T13:35:30.973Z,13.63
2018-11-07T13:37:59.911Z,13.87
2018-11-07T13:40:28.542Z,14.90
2018-11-07T13:42:57.273Z,15.20
2018-11-07T13:45:26.081Z,13.97
2018-11-07T13:47:55.428Z,14.70
2018-11-07T13:50:23.950Z,15.40
2018-11-07T13:52:52.896Z,14.40
2018-11-07T13:55:21.416Z,14.43
2018-11-07T13:57:49.937Z,15.27
2018-11-07T14:00:20.018Z,18.13
2018-11-07T14:02:49.007Z,18.27
2018-11-07T14:05:17.797Z,17.33
2018-11-07T14:07:46.202Z,17.60
2018-11-07T14:10:23.149Z,16.03
2018-11-07T14:12:52.105Z,19.07
2018-11-07T14:15:20.712Z,18.93
2018-11-07T14:17:49.468Z,18.87
2018-11-07T14:20:18.025Z,20.63
2018-11-07T14:22:46.600Z,21.87
2018-11-07T14:25:15.425Z,20.47
2018-11-07T14:27:44.065Z,19.53
2018-11-07T14:30:15.695Z,18.33
2018-11-07T14:32:51.666Z,18.17
2018-11-07T14:35:20.532Z,18.13
2018-11-07T14:37:49.311Z,18.50
2018-11-07T14:40:17.773Z,19.80
2018-11-07T14:42:46.818Z,22.33
2018-11-07T14:45:15.455Z,23.90
2018-11-07T14:47:44.174Z,24.77
2018-11-07T14:50:13.342Z,21.70
2018-11-07T14:52:42.225Z,20.50
2018-11-07T14:55:11.886Z,18.63
2018-11-07T14:57:40.496Z,16.83
2018-11-07T15:00:11.645Z,15.87
2018-11-07T15:02:41.290Z,16.57
2018-11-07T15:05:11.251Z,15.20
2018-11-07T15:07:40.557Z,16.87
2018-11-07T15:10:11.430Z,16.73
2018-11-07T15:12:40.515Z,17.70
2018-11-07T15:15:11.711Z,20.43
2018-11-07T15:17:40.658Z,21.50
2018-11-07T15:20:10.731Z,20.33
2018-11-07T15:22:39.371Z,19.27
2018-11-07T15:25:09.233Z,20.47
2018-11-07T15:27:37.767Z,20.07
2018-11-07T15:31:37.718Z,20.47
2018-11-07T15:34:07.330Z,19.50
2018-11-07T15:36:36.213Z,18.90
2018-11-07T15:39:06.844Z,18.97
2018-11-07T15:41:35.798Z,19.07
2018-11-07T15:44:05.019Z,19.03
2018-11-07T15:46:33.893Z,19.87
2018-11-07T15:49:02.893Z,19.60
2018-11-07T15:51:36.562Z,19.23
2018-11-07T15:54:06.054Z,19.80
2018-11-07T15:56:35.056Z,20.27
2018-11-07T15:59:04.566Z,21.47
2018-11-07T16:01:34.002Z,20.67
2018-11-07T16:04:03.458Z,21.80
2018-11-07T16:06:32.302Z,22.17
2018-11-07T16:09:01.174Z,22.43
2018-11-07T16:11:30.813Z,24.73
2018-11-07T16:13:59.694Z,28.30
2018-11-07T16:16:28.607Z,27.97
2018-11-07T16:18:57.797Z,25.03
2018-11-07T16:21:27.066Z,20.73
2018-11-07T16:23:56.213Z,20.53
2018-11-07T16:26:25.760Z,20.30
2018-11-07T16:28:55.009Z,21.00
2018-11-07T16:32:28.075Z,21.03
2018-11-07T16:34:56.792Z,19.77
2018-11-07T16:37:25.678Z,21.67
2018-11-07T16:39:55.546Z,20.47
2018-11-07T16:42:24.357Z,22.33
2018-11-07T16:44:54.441Z,20.50
2018-11-07T16:47:23.146Z,20.50
2018-11-07T16:49:52.588Z,22.67
2018-11-07T16:52:21.772Z,23.10
2018-11-07T16:54:50.871Z,23.23
2018-11-07T16:57:19.878Z,21.97
2018-11-07T16:59:48.943Z,19.97
2018-11-07T17:02:17.836Z,20.57
2018-11-07T17:04:46.471Z,22.80
2018-11-07T17:07:15.323Z,21.17
2018-11-07T17:09:43.997Z,19.57
2018-11-07T17:12:12.898Z,22.83
2018-11-07T17:14:42.030Z,24.40
2018-11-07T17:17:11.201Z,25.47
2018-11-07T17:19:39.985Z,23.00
2018-11-07T17:22:09.070Z,21.13
2018-11-07T17:24:38.201Z,19.83
2018-11-07T17:27:07.032Z,19.40
2018-11-07T17:29:35.695Z,17.23
2018-11-07T17:32:05.054Z,17.07
2018-11-07T17:34:34.412Z,17.87
2018-11-07T17:37:03.443Z,17.70
2018-11-07T17:39:32.334Z,17.80
2018-11-07T17:42:01.088Z,17.67
2018-11-07T17:44:30.344Z,17.17
2018-11-07T17:46:59.540Z,18.60
2018-11-07T17:52:10.530Z,18.03
2018-11-07T17:54:40.426Z,17.13
2018-11-07T17:57:09.166Z,18.87
2018-11-07T17:59:38.454Z,19.40
2018-11-07T18:02:08.006Z,18.03
2018-11-07T18:04:37.097Z,18.43
2018-11-07T18:07:05.896Z,19.57
2018-11-07T18:09:34.788Z,19.93
2018-11-07T18:12:03.899Z,20.63
2018-11-07T18:14:32.725Z,20.40
2018-11-07T18:17:02.128Z,20.90
2018-11-07T18:19:30.735Z,20.97
2018-11-07T18:22:00.114Z,20.25
2018-11-07T18:24:28.572Z,20.67
2018-11-07T18:26:57.922Z,20.93
2018-11-07T18:29:26.806Z,21.30
2018-11-07T18:31:56.201Z,19.83
2018-11-07T18:34:24.801Z,20.13
2018-11-07T18:36:53.617Z,19.90
2018-11-07T18:39:22.157Z,20.27
2018-11-07T18:41:50.882Z,20.53
2018-11-07T18:44:19.565Z,20.53
2018-11-07T18:46:48.415Z,19.57
2018-11-07T18:49:17.253Z,23.27
2018-11-07T18:51:45.969Z,24.63
2018-11-07T18:54:15.415Z,25.53
2018-11-07T18:56:43.999Z,23.10
2018-11-07T18:59:12.636Z,23.13
2018-11-07T19:01:41.965Z,23.50
2018-11-07T19:04:10.676Z,21.57
2018-11-07T19:06:39.647Z,20.63
2018-11-07T19:09:09.902Z,20.33
2018-11-07T19:11:38.772Z,20.77
2018-11-07T19:14:07.678Z,20.77
2018-11-07T19:16:36.670Z,20.87
2018-11-07T19:19:05.569Z,19.37
2018-11-07T19:21:34.238Z,20.43
2018-11-07T19:24:03.209Z,20.57
2018-11-07T19:26:31.752Z,22.10
2018-11-07T19:29:01.104Z,21.43
2018-11-07T19:31:30.226Z,23.13
2018-11-07T19:33:59.001Z,23.50
2018-11-07T19:36:27.489Z,21.40
2018-11-07T19:38:56.046Z,27.43
2018-11-07T19:41:24.685Z,27.03
2018-11-07T19:43:53.174Z,26.07
2018-11-07T19:46:21.721Z,28.07
2018-11-07T19:48:50.263Z,36.17
2018-11-07T19:51:19.014Z,45.20
2018-11-07T19:53:49.620Z,54.00
2018-11-07T19:56:18.303Z,61.03
2018-11-07T19:58:48.735Z,78.80
2018-11-07T20:01:17.260Z,65.13
2018-11-07T20:03:45.766Z,59.73
2018-11-07T20:06:15.344Z,53.80
2018-11-07T20:08:43.897Z,43.73
2018-11-07T20:11:12.416Z,39.20
2018-11-07T20:13:40.918Z,38.80
2018-11-07T20:16:09.682Z,36.83
2018-11-07T20:18:39.106Z,37.37
2018-11-07T20:21:07.665Z,38.40
2018-11-07T20:23:36.175Z,36.00
2018-11-07T20:26:04.837Z,35.27
2018-11-07T20:28:33.507Z,35.63
2018-11-07T20:31:02.033Z,33.27
2018-11-07T20:33:30.649Z,32.67
2018-11-07T20:36:00.318Z,31.27
2018-11-07T20:38:28.675Z,35.87
2018-11-07T20:40:57.400Z,36.77
2018-11-07T20:43:25.986Z,31.70
2018-11-07T20:45:54.543Z,31.50
2018-11-07T20:48:23.158Z,35.37
2018-11-07T20:50:51.792Z,40.67
2018-11-07T20:53:20.282Z,38.07
2018-11-07T20:55:48.782Z,32.70
2018-11-07T20:58:17.397Z,33.53
2018-11-07T21:00:45.823Z,30.93
2018-11-07T21:03:14.422Z,29.97
2018-11-07T21:05:43.038Z,28.93
2018-11-07T21:08:11.661Z,28.17
2018-11-07T21:10:40.259Z,26.93
2018-11-07T21:13:08.848Z,30.27
2018-11-07T21:15:37.367Z,30.47
2018-11-07T21:18:06.036Z,29.90
2018-11-07T21:20:34.645Z,29.33
2018-11-07T21:23:03.316Z,28.53
2018-11-07T21:25:31.822Z,26.90
2018-11-07T21:28:00.409Z,26.93
2018-11-07T21:30:28.992Z,23.90
2018-11-07T21:32:57.685Z,22.10
2018-11-07T21:35:27.154Z,22.13
2018-11-07T21:37:55.907Z,22.07
2018-11-07T21:40:24.561Z,21.70
2018-11-07T21:42:53.165Z,21.43
2018-11-07T21:45:21.691Z,21.00
2018-11-07T21:47:50.788Z,21.63
2018-11-07T21:50:19.461Z,20.37
2018-11-07T21:52:47.999Z,19.90
2018-11-07T21:55:16.615Z,18.87
2018-11-07T21:57:45.413Z,19.50
2018-11-07T22:00:17.098Z,21.23
2018-11-07T22:02:46.301Z,22.10
2018-11-07T22:05:15.785Z,23.53
2018-11-07T22:07:44.577Z,21.63
2018-11-07T22:10:14.355Z,21.30
2018-11-07T22:12:42.888Z,18.60
2018-11-07T22:15:11.773Z,18.83
2018-11-07T22:17:40.524Z,18.40
2018-11-07T22:20:12.415Z,18.70
2018-11-07T22:22:41.048Z,18.83
2018-11-07T22:25:09.747Z,18.87
2018-11-07T22:27:38.334Z,18.40
2018-11-07T22:30:08.783Z,18.53
2018-11-07T22:32:37.748Z,19.97
2018-11-07T22:35:07.557Z,18.67
2018-11-07T22:37:36.082Z,19.50
2018-11-07T22:40:06.559Z,19.45
2018-11-07T22:42:37.025Z,19.43
2018-11-07T22:45:06.296Z,19.33
2018-11-07T22:47:35.456Z,18.53
2018-11-07T22:50:04.110Z,20.47
2018-11-07T22:52:32.775Z,19.37
2018-11-07T22:55:01.323Z,19.30
2018-11-07T22:57:30.011Z,20.33
2018-11-07T22:59:58.576Z,20.27
2018-11-07T23:02:27.188Z,20.10
2018-11-07T23:04:55.817Z,22.00
2018-11-07T23:07:24.251Z,20.53
2018-11-07T23:09:52.891Z,22.83
2018-11-07T23:12:21.466Z,19.33
2018-11-07T23:14:50.026Z,19.03
2018-11-07T23:17:18.619Z,19.27
2018-11-07T23:19:47.071Z,18.17
2018-11-07T23:22:15.827Z,18.97
2018-11-07T23:24:44.332Z,18.63
2018-11-07T23:27:12.915Z,18.53
2018-11-07T23:29:41.408Z,18.20
2018-11-07T23:32:10.864Z,19.10
2018-11-07T23:34:39.635Z,18.43
2018-11-07T23:37:08.352Z,19.33
2018-11-07T23:39:37.286Z,20.07
2018-11-07T23:42:05.873Z,19.57
2018-11-07T23:44:34.655Z,19.37
2018-11-07T23:47:03.145Z,18.37
2018-11-07T23:49:31.671Z,19.43
2018-11-07T23:52:00.401Z,18.70
2018-11-07T23:54:28.944Z,18.77
2018-11-07T23:56:57.545Z,19.03
2018-11-07T23:59:26.823Z,18.30
